Terminal Aerodrome Forecast
Issued by NWS

Home | Current Version | Previous Version | Text Only | Print | Product List | Glossary On
Versions: 1 2 3 4 5 6 7 8 9 10 11 12 13
000
FTUS43 KDVN 242333
TAFBRL
TAF
KBRL 242333Z 2500/2524 14010KT P6SM VCSH OVC050
     FM250200 12012KT P6SM BKN040
     FM250600 11012KT 6SM BR VCSH OVC020
     FM251000 09015KT 2SM RA BR VCTS SCT008CB OVC012
     FM251700 06014G21KT 6SM BR VCSH OVC020=

USA.gov is the U.S. government's official web portal to all federal, state and local government web resources and services.